Capitol Logistics 774


OKBK
Kuwait International Airport
Kuwait City, KW
EBLG
Liège Airport
Liege, BE

Route Details

Aircraft Information
Primary: Boeing 767-300BDSF
Backup: Not Available
Route Data
Distance: 2744nm
Sched. Duration: 6h 20m
Avg. Duration: 6h 14m (-5m)
Times Flown: 4
Recm'd Route: Not Available
Planned Altitude: 34,000ft
Origin Wx: OKBK 080600Z 35013KT 8000 SKC 40/08 Q0995 NOSIG
Dest. Wx: EBLG 080620Z 19003KT 150V220 CAVOK 25/14 Q1020 NOSIG
Notes:

Financial History
Total Freight: 378,812lbs
Average Load: 94,703lbs/flt
Fuel Used: 275,187lbs
Avg. Fuel Used: 68,797lbs/flt
Fuel Expense: $93,564
Avg. Fuel Expense: $23,391
Avg. Fuel Cost: $0.34/lbs
Total Gross Income: $1,856,179
Pilot Pay: $826
Total Expenses: $200,675
Total Revenue: $1,556,484
Average Revenue: $464,044.70